Time;durP1;ratioP1;P1;durP2;ratioP2;P2;SDS_P1;SDS_P2;PMS_P1;PMS_P2;Temp;Humidity;BMP_temperature;BMP_pressure;BME280_temperature;BME280_humidity;BME280_pressure;Samples;Min_cycle;Max_cycle;Signal;HPM_P1;HPM_P2
2021/12/08 00:00:30;;;;;;;11.82;6.22;;;;;;;-0.67;73.78;99246.84;4972604;28;20050;-63
2021/12/08 00:03:00;;;;;;;13.63;7.25;;;;;;;-0.71;73.69;99260.19;4970195;28;20067;-62
2021/12/08 00:05:28;;;;;;;17.85;7.63;;;;;;;-0.72;73.70;99269.50;4972548;28;20105;-62
2021/12/08 00:07:55;;;;;;;18.33;8.75;;;;;;;-0.75;73.91;99278.22;4970269;28;20146;-63
2021/12/08 00:13:03;;;;;;;23.88;8.75;;;;;;;-0.74;73.93;99273.59;4969360;28;20058;-62
2021/12/08 00:15:42;;;;;;;17.63;8.60;;;;;;;-0.67;73.37;99264.06;4972745;28;20060;-63
2021/12/08 00:18:12;;;;;;;16.73;7.97;;;;;;;-0.63;73.28;99276.09;4970451;28;20051;-62
2021/12/08 00:20:41;;;;;;;17.08;7.65;;;;;;;-0.64;73.36;99279.06;4955960;28;20537;-63
2021/12/08 00:23:09;;;;;;;16.60;9.13;;;;;;;-0.70;73.30;99280.97;4969927;28;20546;-62
2021/12/08 00:25:37;;;;;;;18.63;9.10;;;;;;;-0.67;73.52;99271.41;4972035;28;20462;-63
2021/12/08 00:28:06;;;;;;;20.15;7.90;;;;;;;-0.83;73.26;99272.44;4970037;28;21171;-63
2021/12/08 00:30:35;;;;;;;18.42;8.52;;;;;;;-0.95;73.76;99277.31;4972204;28;20529;-62
2021/12/08 00:33:04;;;;;;;18.02;7.63;;;;;;;-0.94;73.96;99268.84;4969997;28;20566;-63
2021/12/08 00:35:31;;;;;;;18.90;8.73;;;;;;;-0.91;73.63;99264.75;4972165;28;20046;-63
2021/12/08 00:37:58;;;;;;;18.55;8.70;;;;;;;-0.88;73.48;99267.78;4969682;28;20426;-63
2021/12/08 00:40:27;;;;;;;13.70;7.35;;;;;;;-0.89;73.40;99262.59;4971719;28;20053;-63
2021/12/08 00:42:55;;;;;;;20.90;9.43;;;;;;;-0.92;73.17;99265.84;4969643;28;20057;-62
2021/12/08 00:45:23;;;;;;;12.75;7.22;;;;;;;-1.00;73.10;99274.53;4968385;28;20497;-62
2021/12/08 00:47:53;;;;;;;17.15;8.45;;;;;;;-1.11;73.36;99283.72;4954827;28;20137;-61
2021/12/08 00:50:24;;;;;;;15.03;7.70;;;;;;;-1.10;73.47;99286.19;4971856;28;20459;-63
2021/12/08 00:52:51;;;;;;;20.25;8.95;;;;;;;-1.04;73.27;99289.81;4953911;28;20053;-63
2021/12/08 00:55:19;;;;;;;16.73;8.57;;;;;;;-0.97;73.13;99291.22;4971051;28;20434;-63
2021/12/08 00:57:47;;;;;;;19.10;8.52;;;;;;;-1.01;72.72;99306.44;4971299;28;20047;-62
2021/12/08 01:00:18;;;;;;;18.65;7.32;;;;;;;-1.09;72.90;99301.50;4969923;28;20053;-62
2021/12/08 01:02:45;;;;;;;13.75;7.82;;;;;;;-1.07;72.60;99315.69;4971364;28;20073;-56
2021/12/08 01:05:16;;;;;;;16.92;9.13;;;;;;;-1.04;73.09;99322.56;4969482;28;20058;-58
2021/12/08 01:07:44;;;;;;;19.13;9.75;;;;;;;-1.04;72.63;99319.81;4971501;28;20046;-61
2021/12/08 01:10:15;;;;;;;22.30;8.48;;;;;;;-0.98;72.52;99316.03;4954081;28;20053;-63
2021/12/08 01:13:01;;;;;;;17.58;8.88;;;;;;;-1.07;72.66;99298.53;4966383;28;20190;-63
2021/12/08 01:15:29;;;;;;;16.40;8.52;;;;;;;-1.03;72.52;99305.09;4970005;28;20050;-62
2021/12/08 01:17:57;;;;;;;15.10;7.53;;;;;;;-1.14;72.42;99323.31;4970371;28;20057;-61
2021/12/08 01:20:25;;;;;;;18.55;8.82;;;;;;;-1.14;72.58;99322.47;4970744;28;20046;-61
2021/12/08 01:22:52;;;;;;;20.40;8.90;;;;;;;-1.10;72.46;99320.88;4971649;28;20523;-63
2021/12/08 01:25:19;;;;;;;17.45;9.00;;;;;;;-1.11;72.64;99317.31;4969756;28;20422;-62
2021/12/08 01:27:46;;;;;;;18.35;8.15;;;;;;;-1.13;72.46;99326.88;4971398;28;20094;-63
2021/12/08 01:30:14;;;;;;;20.58;8.80;;;;;;;-1.19;72.65;99325.97;4968967;28;20149;-63
2021/12/08 01:32:41;;;;;;;19.27;8.73;;;;;;;-1.19;72.35;99325.97;4971243;28;20085;-63
2021/12/08 01:35:11;;;;;;;20.90;8.57;;;;;;;-1.15;72.31;99315.38;4968965;28;20047;-62
2021/12/08 01:37:39;;;;;;;18.80;9.68;;;;;;;-1.12;72.01;99333.97;4954876;28;20441;-63
2021/12/08 01:40:10;;;;;;;15.60;7.35;;;;;;;-1.10;72.00;99329.06;4969179;28;20043;-63
2021/12/08 01:42:43;;;;;;;;;;;;;;;-1.28;72.20;99318.56;4971949;28;20481;-63
2021/12/08 01:47:59;;;;;;;15.52;8.38;;;;;;;-1.33;72.14;99315.78;4970873;28;20406;-62
2021/12/08 01:50:26;;;;;;;19.98;8.90;;;;;;;-1.29;71.90;99319.63;4969726;28;20104;-63
2021/12/08 01:52:53;;;;;;;18.67;8.48;;;;;;;-1.33;71.92;99326.69;4971277;28;20047;-68
2021/12/08 01:55:20;;;;;;;18.27;9.20;;;;;;;-1.29;71.87;99319.63;4968910;28;20097;-62
2021/12/08 01:57:47;;;;;;;19.98;8.18;;;;;;;-1.26;71.82;99330.03;4971172;28;20146;-61
2021/12/08 02:00:27;;;;;;;17.52;8.48;;;;;;;-1.40;71.92;99324.19;4968937;28;20053;-62
2021/12/08 02:02:54;;;;;;;17.40;7.75;;;;;;;-1.57;72.03;99334.41;4970853;28;20062;-63
2021/12/08 02:05:21;;;;;;;20.83;9.27;;;;;;;-1.57;72.08;99339.06;4968747;28;20053;-62
2021/12/08 02:07:49;;;;;;;22.92;10.02;;;;;;;-1.53;72.11;99338.28;4971485;28;20054;-62
2021/12/08 02:10:16;;;;;;;17.02;8.13;;;;;;;-1.53;72.02;99342.91;4972416;28;20153;-63
2021/12/08 02:12:43;;;;;;;17.67;8.65;;;;;;;-1.58;71.59;99345.56;4974494;28;20094;-63
2021/12/08 02:15:13;;;;;;;23.38;9.02;;;;;;;-1.59;71.72;99357.56;4972728;28;20059;-62
2021/12/08 02:17:41;;;;;;;23.35;9.57;;;;;;;-1.60;71.93;99355.94;4974554;28;20086;-62
2021/12/08 02:20:10;;;;;;;19.98;10.43;;;;;;;-1.58;71.80;99365.50;4972383;28;20051;-62
2021/12/08 02:22:38;;;;;;;20.65;8.10;;;;;;;-1.66;71.57;99362.41;4974245;28;20058;-62
2021/12/08 02:25:15;;;;;;;19.58;8.68;;;;;;;-1.77;71.82;99371.56;4972305;28;20051;-63
2021/12/08 02:27:42;;;;;;;22.83;9.93;;;;;;;-1.75;71.69;99369.41;4974356;28;20137;-63
2021/12/08 02:30:19;;;;;;;24.10;9.85;;;;;;;-1.71;71.58;99365.09;4972029;28;20423;-63
2021/12/08 02:46:48;;;;;;;13.73;6.90;;;;;;;-2.16;72.09;99368.97;4971541;28;20050;-63
2021/12/08 02:49:18;;;;;;;25.02;10.70;;;;;;;-2.21;72.33;99374.38;4974361;28;20043;-63
2021/12/08 02:51:46;;;;;;;19.05;8.40;;;;;;;-2.22;71.95;99358.28;4955076;28;20099;-63
2021/12/08 02:54:13;;;;;;;20.88;9.27;;;;;;;-2.30;72.60;99373.16;4974027;28;20137;-62
2021/12/08 02:56:40;;;;;;;24.77;10.48;;;;;;;-2.32;72.77;99394.38;4972112;28;20047;-64
2021/12/08 02:59:08;;;;;;;22.55;9.85;;;;;;;-2.29;72.45;99385.72;4973411;28;20101;-62
2021/12/08 03:01:36;;;;;;;24.88;10.18;;;;;;;-2.26;72.14;99387.91;4972448;28;20098;-62
2021/12/08 03:04:06;;;;;;;24.23;11.15;;;;;;;-2.16;72.17;99385.31;4972834;28;20395;-62
2021/12/08 03:06:34;;;;;;;19.52;8.35;;;;;;;-2.06;71.99;99390.91;4973169;28;20043;-62
2021/12/08 03:09:03;;;;;;;22.85;9.50;;;;;;;-2.11;72.03;99377.19;4972695;28;20050;-63
2021/12/08 03:11:30;;;;;;;19.58;9.50;;;;;;;-2.14;71.81;99401.41;4973553;28;20046;-62
2021/12/08 03:14:06;;;;;;;22.50;9.57;;;;;;;-2.06;71.86;99415.41;4973687;28;20521;-67
2021/12/08 03:16:36;;;;;;;22.40;9.73;;;;;;;-2.05;71.68;99414.34;4973239;28;20058;-62
2021/12/08 03:19:08;;;;;;;20.58;9.15;;;;;;;-2.11;71.54;99415.34;4974233;28;20058;-63
2021/12/08 03:21:35;;;;;;;20.40;8.80;;;;;;;-2.05;71.64;99408.06;4972758;28;20133;-63
2021/12/08 03:29:50;;;;;;;21.98;9.80;;;;;;;-2.04;71.38;99399.63;4973556;28;20081;-63
2021/12/08 03:32:28;;;;;;;19.27;8.27;;;;;;;-2.06;71.44;99417.31;4971003;28;20500;-62
2021/12/08 03:34:55;;;;;;;18.25;8.25;;;;;;;-2.11;71.67;99425.41;4973335;28;20055;-63
2021/12/08 03:37:37;;;;;;;19.05;8.18;;;;;;;-2.19;71.61;99413.06;4973295;28;20046;-61
2021/12/08 03:40:16;;;;;;;23.80;9.57;;;;;;;-2.42;71.98;99424.22;4971600;28;20074;-63
2021/12/08 03:42:45;;;;;;;17.10;7.90;;;;;;;-2.49;71.59;99425.47;4972769;28;20495;-63
2021/12/08 03:45:19;;;;;;;22.40;9.05;;;;;;;-2.56;71.68;99422.09;4954494;28;20503;-63
2021/12/08 03:47:50;;;;;;;23.20;11.35;;;;;;;-2.56;71.88;99438.44;4973060;28;20498;-63
2021/12/08 03:50:18;;;;;;;25.90;11.77;;;;;;;-2.68;71.78;99424.94;4970925;28;20046;-62
2021/12/08 03:52:45;;;;;;;27.70;9.48;;;;;;;-2.79;71.69;99433.19;4972773;28;20050;-62
2021/12/08 03:55:14;;;;;;;24.85;11.48;;;;;;;-2.74;71.68;99442.25;4971364;28;20475;-61
2021/12/08 03:57:42;;;;;;;24.65;11.27;;;;;;;-2.63;71.53;99440.50;4971122;28;20058;-63
2021/12/08 04:00:16;;;;;;;12.02;6.07;;;;;;;-2.55;71.47;99440.91;4954733;28;20057;-64
2021/12/08 04:02:44;;;;;;;22.17;10.25;;;;;;;-2.57;71.51;99443.06;4970858;28;20150;-61
2021/12/08 04:05:12;;;;;;;24.73;9.57;;;;;;;-2.58;71.20;99452.28;4955277;28;20059;-61
2021/12/08 04:07:45;;;;;;;27.63;10.48;;;;;;;-2.66;71.33;99449.97;4970677;28;20529;-62
2021/12/08 04:10:19;;;;;;;21.17;9.80;;;;;;;-2.77;71.68;99442.75;4971117;28;20071;-62
2021/12/08 04:12:51;;;;;;;20.85;9.82;;;;;;;-2.74;71.85;99452.31;4971109;28;20078;-63
2021/12/08 04:15:21;;;;;;;23.17;9.90;;;;;;;-2.75;72.28;99448.75;4970406;28;20057;-62
2021/12/08 04:17:51;;;;;;;21.38;9.65;;;;;;;-2.76;72.42;99459.91;4972281;28;20471;-63
2021/12/08 04:20:30;;;;;;;18.27;8.75;;;;;;;-2.76;71.98;99462.63;4970326;28;20054;-62
2021/12/08 04:22:59;;;;;;;26.08;11.15;;;;;;;-2.75;71.77;99467.00;4972059;28;20093;-63
2021/12/08 04:25:33;;;;;;;26.30;9.65;;;;;;;-2.79;71.94;99472.13;4969973;28;20558;-62
2021/12/08 04:28:04;;;;;;;20.65;9.38;;;;;;;-2.81;72.03;99466.09;4972190;28;20509;-62
2021/12/08 04:30:36;;;;;;;22.70;9.75;;;;;;;-2.84;71.90;99472.03;4953696;28;20419;-63
2021/12/08 04:33:06;;;;;;;24.08;9.85;;;;;;;-2.85;71.95;99478.56;4972222;28;20047;-67
2021/12/08 04:35:34;;;;;;;25.88;9.45;;;;;;;-2.77;71.64;99478.16;4969968;28;20111;-66
2021/12/08 04:38:06;;;;;;;22.85;10.27;;;;;;;-2.94;71.82;99463.72;4971832;28;20043;-65
2021/12/08 04:43:26;;;;;;;29.25;9.77;;;;;;;-3.01;72.49;99473.94;4971921;28;20054;-66
2021/12/08 04:46:49;;;;;;;21.92;9.20;;;;;;;-3.00;71.94;99475.59;4969761;28;20054;-67
2021/12/08 04:52:21;;;;;;;21.17;9.45;;;;;;;-3.19;73.05;99479.63;4934234;28;20412;-66
2021/12/08 05:01:23;;;;;;;22.52;9.63;;;;;;;-3.15;72.67;99505.25;4969777;28;20054;-60
2021/12/08 05:07:01;;;;;;;23.95;10.15;;;;;;;-2.91;71.75;99517.63;4971508;28;20079;-64
2021/12/08 05:09:35;;;;;;;32.58;11.50;;;;;;;-2.91;72.17;99525.81;4971274;28;20058;-60
2021/12/08 05:12:11;;;;;;;27.70;10.90;;;;;;;-2.95;72.12;99523.81;4970302;28;20061;-56
2021/12/08 05:14:47;;;;;;;28.77;10.35;;;;;;;-2.96;71.11;99531.16;4970796;28;20058;-57
2021/12/08 05:17:22;;;;;;;27.30;9.10;;;;;;;-3.09;70.50;99526.03;4969055;28;20529;-60
2021/12/08 05:19:54;;;;;;;22.13;8.38;;;;;;;-3.42;68.82;99523.25;4971681;28;20057;-57
2021/12/08 05:22:37;;;;;;;18.88;7.70;;;;;;;-3.54;69.83;99518.91;4969269;28;20627;-58
2021/12/08 05:25:10;;;;;;;23.20;9.30;;;;;;;-3.54;69.58;99537.94;4971334;28;20051;-56
2021/12/08 05:27:46;;;;;;;21.02;8.50;;;;;;;-3.60;69.66;99538.91;4969407;28;20061;-61
2021/12/08 05:30:18;;;;;;;18.70;7.47;;;;;;;-3.62;68.87;99550.03;4971305;28;20418;-58
2021/12/08 05:32:48;;;;;;;27.65;8.88;;;;;;;-3.68;69.20;99548.28;4969068;28;20062;-58
2021/12/08 05:35:20;;;;;;;27.10;9.82;;;;;;;-3.67;69.16;99535.50;4954759;28;20050;-58
2021/12/08 05:37:48;;;;;;;24.75;7.85;;;;;;;-3.84;69.18;99549.03;4970680;28;20058;-61
2021/12/08 05:40:21;;;;;;;15.60;6.43;;;;;;;-4.03;69.13;99561.94;4971354;28;20042;-57
2021/12/08 05:42:48;;;;;;;29.30;8.68;;;;;;;-4.10;68.94;99555.81;4971852;28;20481;-61
2021/12/08 05:45:20;;;;;;;20.23;7.28;;;;;;;-4.01;69.24;99565.25;4974985;28;20072;-61
2021/12/08 05:47:49;;;;;;;27.17;8.52;;;;;;;-4.10;69.15;99571.28;4955177;28;20414;-63
2021/12/08 05:50:23;;;;;;;23.75;8.60;;;;;;;-4.13;68.43;99577.19;4974857;28;20534;-58
2021/12/08 05:52:52;;;;;;;20.13;7.20;;;;;;;-4.06;68.79;99567.84;4972625;28;20142;-56
2021/12/08 05:55:21;;;;;;;16.38;7.03;;;;;;;-4.23;68.71;99563.38;4974576;28;20051;-57
2021/12/08 05:57:48;;;;;;;23.70;8.38;;;;;;;-4.35;68.52;99560.66;4972670;28;20565;-63
2021/12/08 06:00:25;;;;;;;26.60;9.40;;;;;;;-4.33;68.77;99582.13;4975117;28;20051;-54
2021/12/08 06:02:54;;;;;;;22.92;8.55;;;;;;;-4.36;69.03;99579.88;4971836;28;20490;-56
2021/12/08 06:05:22;;;;;;;25.42;8.55;;;;;;;-4.42;68.78;99591.69;4958658;28;20121;-58
2021/12/08 06:07:49;;;;;;;22.20;8.32;;;;;;;-4.45;68.93;99582.13;4971383;28;20061;-56
2021/12/08 06:10:23;;;;;;;20.42;8.45;;;;;;;-4.51;68.92;99602.09;4971106;28;20067;-60
2021/12/08 06:12:51;;;;;;;23.70;8.48;;;;;;;-4.59;69.24;99604.31;4972181;28;20093;-57
2021/12/08 06:15:19;;;;;;;14.20;5.18;;;;;;;-4.64;69.41;99605.03;4974481;28;20426;-56
2021/12/08 06:17:47;;;;;;;28.13;8.57;;;;;;;-4.66;69.85;99609.00;4972105;28;20133;-62
2021/12/08 06:20:15;;;;;;;30.30;10.15;;;;;;;-4.57;69.35;99607.59;4974314;28;20049;-59
2021/12/08 06:22:47;;;;;;;13.52;4.78;;;;;;;-4.43;69.63;99611.75;4971613;28;20141;-52
2021/12/08 06:25:17;;;;;;;18.45;7.45;;;;;;;-4.51;69.20;99614.81;4974557;28;20133;-61
2021/12/08 06:27:50;;;;;;;21.70;7.97;;;;;;;-4.52;69.65;99626.75;4971361;28;20046;-58
2021/12/08 06:30:22;;;;;;;29.48;9.43;;;;;;;-4.35;69.38;99625.81;4973819;28;20473;-62
2021/12/08 06:32:49;;;;;;;27.90;10.38;;;;;;;-4.27;69.36;99621.91;4971810;28;20061;-62
2021/12/08 06:35:22;;;;;;;29.95;9.73;;;;;;;-4.17;69.02;99614.84;4974382;28;20109;-63
2021/12/08 06:37:49;;;;;;;25.08;8.07;;;;;;;-4.13;69.29;99615.19;4972377;28;20538;-63
2021/12/08 06:40:16;;;;;;;19.67;6.88;;;;;;;-4.23;68.80;99612.25;4974214;28;20043;-60
2021/12/08 06:42:52;;;;;;;21.80;7.83;;;;;;;-4.21;69.48;99612.81;4971428;28;20080;-59
2021/12/08 06:45:26;;;;;;;24.20;9.48;;;;;;;-4.30;70.08;99625.09;4973331;28;20054;-60
2021/12/08 06:47:59;;;;;;;27.02;8.90;;;;;;;-4.24;69.10;99626.88;4970926;28;20065;-58
2021/12/08 06:50:33;;;;;;;27.08;9.65;;;;;;;-4.17;69.38;99628.41;4973702;28;20081;-58
2021/12/08 06:53:01;;;;;;;28.77;9.10;;;;;;;-4.10;68.96;99626.44;4971292;28;20074;-55
2021/12/08 06:55:35;;;;;;;;;;;;;;;-4.23;69.27;99640.22;4973707;28;20410;-57
2021/12/08 06:58:18;;;;;;;21.17;7.20;;;;;;;-4.34;69.94;99640.22;4971988;28;19937;-58
2021/12/08 07:01:44;;;;;;;31.63;8.50;;;;;;;-4.35;69.08;99633.16;4971920;28;20093;-62
2021/12/08 07:07:00;;;;;;;18.58;7.55;;;;;;;-4.41;69.96;99644.94;4969551;28;20065;-60
2021/12/08 07:09:43;;;;;;;24.70;7.97;;;;;;;-4.33;69.77;99650.00;4969834;28;20074;-62
2021/12/08 07:12:16;;;;;;;21.58;7.70;;;;;;;-4.41;70.22;99644.94;4973920;28;20050;-63
2021/12/08 07:14:47;;;;;;;27.88;10.30;;;;;;;-4.29;69.68;99654.72;4971231;28;20051;-59
2021/12/08 07:17:21;;;;;;;24.67;8.68;;;;;;;-4.13;68.95;99662.22;4973530;28;20046;-58
2021/12/08 07:20:03;;;;;;;24.13;8.80;;;;;;;-4.12;69.63;99652.16;4973527;28;20418;-59
2021/12/08 07:22:33;;;;;;;27.27;9.02;;;;;;;-4.05;69.21;99661.03;4955717;28;20058;-54
2021/12/08 07:25:02;;;;;;;22.92;8.68;;;;;;;-4.00;69.08;99663.84;4973055;28;20054;-59
2021/12/08 07:27:32;;;;;;;31.45;10.10;;;;;;;-3.89;68.91;99671.19;4972212;28;20050;-58
2021/12/08 07:30:06;;;;;;;26.27;9.02;;;;;;;-3.81;68.95;99663.50;4972441;28;20572;-58
2021/12/08 07:32:36;;;;;;;21.55;8.75;;;;;;;-3.78;69.05;99654.88;4971304;28;20050;-59
2021/12/08 07:35:09;;;;;;;25.35;8.50;;;;;;;-3.93;69.20;99670.81;4973158;28;20053;-61
2021/12/08 07:37:37;;;;;;;18.60;8.35;;;;;;;-3.92;69.17;99672.50;4970968;28;20062;-62
2021/12/08 07:40:08;;;;;;;20.98;8.23;;;;;;;-3.85;69.02;99673.19;4971275;28;20055;-59
2021/12/08 07:42:40;;;;;;;20.25;7.50;;;;;;;-3.89;69.18;99666.56;4970928;28;20086;-59
2021/12/08 07:45:12;;;;;;;27.77;8.20;;;;;;;-3.98;69.22;99672.59;4971384;28;20063;-55
2021/12/08 07:47:40;;;;;;;29.75;9.02;;;;;;;-4.18;69.93;99672.09;4970275;28;20046;-63
2021/12/08 07:50:18;;;;;;;30.30;9.95;;;;;;;-4.13;69.81;99664.09;4968921;28;20066;-58
2021/12/08 07:52:48;;;;;;;20.02;7.80;;;;;;;-4.04;69.47;99665.38;4969867;28;20057;-60
2021/12/08 07:55:27;;;;;;;19.33;8.37;;;;;;;-4.10;68.94;99677.19;4972566;28;20141;-63
2021/12/08 07:57:55;;;;;;;8.63;4.38;;;;;;;-4.13;69.30;99674.94;4971750;28;20834;-60
2021/12/08 08:00:34;;;;;;;55.90;18.65;;;;;;;-4.13;69.05;99677.66;4972742;28;20043;-59
2021/12/08 08:03:03;;;;;;;29.33;9.90;;;;;;;-4.23;69.45;99685.56;4969562;28;20067;-63
2021/12/08 08:05:32;;;;;;;23.83;8.77;;;;;;;-4.26;69.30;99686.84;4972010;28;20051;-59
2021/12/08 08:08:03;;;;;;;23.20;8.43;;;;;;;-4.18;68.82;99685.69;4952989;28;20145;-60
2021/12/08 08:10:33;;;;;;;25.90;8.85;;;;;;;-4.10;68.41;99686.19;4973931;28;20471;-58
2021/12/08 08:13:02;;;;;;;26.80;9.10;;;;;;;-3.93;69.11;99681.69;4968407;28;20051;-59
2021/12/08 08:15:37;;;;;;;22.25;8.43;;;;;;;-3.87;68.55;99679.94;4971883;28;20049;-60
2021/12/08 08:18:08;;;;;;;26.77;9.40;;;;;;;-3.82;68.52;99682.78;4971739;28;20047;-59
2021/12/08 08:20:42;;;;;;;29.15;9.77;;;;;;;-3.81;68.71;99687.13;4972670;28;20042;-58
2021/12/08 08:23:09;;;;;;;25.52;9.27;;;;;;;-3.83;68.32;99690.09;4970644;28;20051;-58
2021/12/08 08:25:40;;;;;;;27.58;9.25;;;;;;;-3.88;68.76;99683.69;4972051;28;20050;-58
2021/12/08 08:28:08;;;;;;;22.75;8.25;;;;;;;-3.88;68.47;99689.13;4970409;28;20166;-60
2021/12/08 08:30:44;;;;;;;27.35;8.85;;;;;;;-3.81;68.98;99701.56;4972185;28;20050;-61
2021/12/08 08:33:11;;;;;;;29.73;10.10;;;;;;;-3.71;68.05;99694.69;4970220;28;20073;-58
2021/12/08 08:35:45;;;;;;;22.92;8.45;;;;;;;-3.72;68.60;99702.00;4972264;28;20423;-58
2021/12/08 08:38:20;;;;;;;24.52;8.85;;;;;;;-3.79;68.41;99693.16;4952938;28;20043;-56
2021/12/08 08:41:04;;;;;;;21.52;8.25;;;;;;;-3.83;69.42;99691.97;4964485;28;20502;-57
2021/12/08 08:43:31;;;;;;;25.00;7.82;;;;;;;-3.87;69.28;99698.94;4971359;28;20509;-60
2021/12/08 08:46:06;;;;;;;22.80;7.85;;;;;;;-3.91;68.57;99700.47;4969686;28;20129;-62
2021/12/08 08:48:46;;;;;;;19.83;8.55;;;;;;;-3.94;68.94;99700.94;4971355;28;20043;-62
2021/12/08 08:51:21;;;;;;;15.90;7.00;;;;;;;-3.83;69.00;99700.13;4971318;28;20047;-63
2021/12/08 08:53:52;;;;;;;22.73;8.48;;;;;;;-3.83;68.57;99697.41;4971227;28;20065;-61
2021/12/08 08:56:25;;;;;;;17.38;7.35;;;;;;;-3.83;68.11;99700.13;4969135;28;20043;-60
2021/12/08 08:58:57;;;;;;;19.65;8.02;;;;;;;-3.97;68.69;99693.25;4971737;28;20061;-60
2021/12/08 09:01:36;;;;;;;20.05;8.45;;;;;;;-3.97;68.56;99691.38;4969754;28;20681;-61
2021/12/08 09:04:10;;;;;;;19.50;7.93;;;;;;;-3.84;68.24;99701.19;4971032;28;20498;-62
2021/12/08 09:06:40;;;;;;;29.33;7.85;;;;;;;-3.73;67.78;99691.38;4968809;28;20061;-57
2021/12/08 09:09:16;;;;;;;21.30;7.63;;;;;;;-3.69;68.06;99690.66;4963347;28;20053;-61
2021/12/08 09:11:57;;;;;;;22.52;7.78;;;;;;;-3.67;67.66;99691.28;4968351;28;20054;-55
2021/12/08 09:14:32;;;;;;;22.65;8.38;;;;;;;-3.66;67.20;99695.63;4971568;28;20132;-60
2021/12/08 09:17:08;;;;;;;27.40;8.73;;;;;;;-3.87;67.68;99698.94;4971097;28;20502;-59
2021/12/08 09:19:42;;;;;;;20.95;6.88;;;;;;;-4.05;68.23;99693.63;4952192;28;20085;-62
2021/12/08 09:22:27;;;;;;;20.40;7.13;;;;;;;-4.23;68.32;99693.72;4970420;28;20046;-65
2021/12/08 09:25:17;;;;;;;16.65;6.30;;;;;;;-4.19;68.21;99697.63;4967686;28;20055;-59
2021/12/08 09:27:51;;;;;;;36.23;7.93;;;;;;;-4.06;67.89;99692.78;4964267;28;20047;-58
2021/12/08 09:30:33;;;;;;;22.48;6.80;;;;;;;-3.95;67.69;99691.13;4972643;28;20494;-61
2021/12/08 09:33:11;;;;;;;19.98;7.28;;;;;;;-3.85;68.44;99688.69;4968341;28;20458;-59
2021/12/08 09:36:18;;;;;;;25.63;8.82;;;;;;;-3.87;67.98;99685.34;4969744;28;20137;-57
2021/12/08 09:39:21;;;;;;;25.95;8.90;;;;;;;-3.90;68.39;99689.34;4874411;29;20060;-62
2021/12/08 09:41:52;;;;;;;25.77;8.45;;;;;;;-3.90;67.72;99691.25;4936945;28;20051;-63
2021/12/08 09:44:24;;;;;;;14.75;5.43;;;;;;;-3.87;68.26;99694.31;4970226;28;20050;-60
2021/12/08 09:46:52;;;;;;;26.13;7.68;;;;;;;-4.05;68.16;99696.34;4967774;28;20413;-61
2021/12/08 09:49:25;;;;;;;20.25;6.97;;;;;;;-4.25;67.97;99693.13;4963369;28;20070;-62
2021/12/08 09:51:54;;;;;;;25.48;8.38;;;;;;;-4.23;68.27;99699.16;4970363;28;20046;-63
2021/12/08 09:54:22;;;;;;;22.80;7.75;;;;;;;-4.27;68.66;99690.63;4971105;28;20569;-60
2021/12/08 09:56:49;;;;;;;22.95;9.15;;;;;;;-4.17;67.94;99690.06;4970568;28;20055;-65
2021/12/08 09:59:17;;;;;;;21.73;7.93;;;;;;;-4.33;68.89;99697.00;4970758;28;20057;-62
2021/12/08 10:01:45;;;;;;;21.40;8.35;;;;;;;-4.32;68.53;99693.22;4968472;28;20114;-65
2021/12/08 10:04:14;;;;;;;20.45;8.23;;;;;;;-4.22;68.83;99692.66;4971285;28;20051;-65
2021/12/08 10:06:44;;;;;;;28.05;8.93;;;;;;;-4.19;68.02;99703.03;4969031;28;20050;-66
2021/12/08 10:09:11;;;;;;;27.85;8.50;;;;;;;-4.27;68.08;99695.22;4970105;28;20058;-65
2021/12/08 10:11:39;;;;;;;23.38;8.25;;;;;;;-4.39;68.46;99699.81;4965927;28;20039;-66
2021/12/08 10:14:06;;;;;;;18.80;7.57;;;;;;;-4.51;68.57;99698.94;4971118;28;20047;-67
2021/12/08 10:16:34;;;;;;;26.10;8.38;;;;;;;-4.40;68.75;99706.31;4966804;28;20406;-64
2021/12/08 10:19:03;;;;;;;20.15;7.82;;;;;;;-4.36;68.21;99702.06;4970144;28;20418;-66
2021/12/08 10:21:49;;;;;;;26.35;8.23;;;;;;;-4.30;68.12;99703.84;4968110;28;20122;-63
2021/12/08 10:24:18;;;;;;;30.30;10.73;;;;;;;-4.35;67.72;99701.03;4971350;28;20057;-65
2021/12/08 10:26:46;;;;;;;17.83;7.25;;;;;;;-4.30;68.20;99706.56;4967151;28;20138;-66
2021/12/08 10:29:14;;;;;;;23.40;8.88;;;;;;;-4.34;68.24;99708.09;4971971;28;20078;-64
2021/12/08 10:31:47;;;;;;;20.50;8.95;;;;;;;-4.50;67.89;99711.47;4971962;28;20050;-65
2021/12/08 10:36:54;;;;;;;27.85;8.60;;;;;;;-4.74;68.78;99715.19;4971593;28;20051;-66
2021/12/08 10:39:30;;;;;;;26.30;9.07;;;;;;;-4.64;68.33;99718.16;4975378;28;20134;-65
2021/12/08 10:42:19;;;;;;;23.30;8.48;;;;;;;-4.64;68.35;99715.44;4971846;28;20066;-65
2021/12/08 10:45:12;;;;;;;22.70;7.32;;;;;;;-4.80;67.95;99724.25;4973058;28;20404;-65
2021/12/08 10:47:44;;;;;;;23.98;8.57;;;;;;;-4.92;68.43;99728.78;4972512;28;20396;-65
2021/12/08 10:56:08;;;;;;;17.60;7.72;;;;;;;-4.64;67.98;99729.84;4975072;28;20058;-65
2021/12/08 10:58:39;;;;;;;26.27;9.20;;;;;;;-4.64;68.06;99734.44;4971581;28;20058;-65
2021/12/08 11:01:25;;;;;;;17.73;6.28;;;;;;;-4.57;67.65;99741.44;4973379;28;20050;-61
2021/12/08 11:04:04;;;;;;;28.80;8.50;;;;;;;-4.54;67.94;99753.69;4972828;28;20105;-64
2021/12/08 11:06:33;;;;;;;21.08;8.43;;;;;;;-4.55;67.65;99735.75;4971936;28;20045;-65
2021/12/08 11:09:02;;;;;;;23.73;8.48;;;;;;;-4.59;67.29;99737.31;4973413;28;20054;-64
2021/12/08 11:11:33;;;;;;;26.50;8.50;;;;;;;-4.58;67.94;99738.94;4973930;28;20073;-64
2021/12/08 11:14:01;;;;;;;;;;;;;;;-4.48;67.40;99741.91;4972987;28;20062;-65
2021/12/08 11:16:27;;;;;;;17.13;7.18;;;;;;;-4.49;67.59;99740.28;4965612;28;19926;-65
2021/12/08 11:19:10;;;;;;;21.38;7.75;;;;;;;-4.45;67.60;99744.16;4972345;28;20081;-65
2021/12/08 11:21:47;;;;;;;22.40;8.30;;;;;;;-4.43;67.02;99733.91;4972438;28;20059;-64
2021/12/08 11:24:35;;;;;;;22.08;8.63;;;;;;;-4.38;67.49;99744.91;4972220;28;20457;-67
2021/12/08 11:27:06;;;;;;;22.35;9.13;;;;;;;-4.40;67.32;99747.03;4970528;28;20050;-63
2021/12/08 11:29:38;;;;;;;24.45;8.15;;;;;;;-4.40;67.82;99750.59;4972635;28;20053;-63
2021/12/08 11:32:10;;;;;;;22.05;7.53;;;;;;;-4.41;67.28;99748.09;4953753;28;20058;-65
2021/12/08 11:34:41;;;;;;;23.55;8.00;;;;;;;-4.55;67.38;99755.59;4972315;28;20055;-63
2021/12/08 11:37:17;;;;;;;24.20;7.90;;;;;;;-4.70;67.83;99754.34;4970860;28;20054;-64
2021/12/08 11:39:48;;;;;;;20.90;8.35;;;;;;;-4.80;68.60;99762.22;4971653;28;20134;-66
2021/12/08 11:42:19;;;;;;;20.30;8.05;;;;;;;-4.82;68.48;99745.34;4968859;28;20362;-62
2021/12/08 11:44:50;;;;;;;18.08;6.95;;;;;;;-4.72;67.68;99760.00;4971907;28;20046;-64
2021/12/08 11:47:21;;;;;;;20.20;7.13;;;;;;;-4.78;68.18;99755.50;4969812;28;20125;-63
2021/12/08 11:49:52;;;;;;;20.05;7.35;;;;;;;-4.78;67.72;99762.78;4972690;28;20181;-63
2021/12/08 11:52:20;;;;;;;;;;;;;;;-4.84;67.94;99755.56;4970493;28;20042;-65
2021/12/08 11:54:59;;;;;;;25.95;8.60;;;;;;;-4.78;68.03;99751.94;4973094;28;19930;-66
2021/12/08 11:57:30;;;;;;;18.98;8.00;;;;;;;-4.70;67.71;99759.78;4971601;28;20051;-64
2021/12/08 12:00:28;;;;;;;20.25;6.05;;;;;;;-4.78;67.67;99768.22;4973960;28;20074;-65
2021/12/08 12:03:01;;;;;;;22.35;7.75;;;;;;;-4.95;68.45;99764.50;4972410;28;20054;-65
2021/12/08 12:05:44;;;;;;;20.58;7.95;;;;;;;-4.88;68.39;99768.78;4971135;28;20046;-65
2021/12/08 12:08:16;;;;;;;19.92;7.68;;;;;;;-4.83;68.43;99770.81;4971378;28;20047;-65
2021/12/08 12:10:46;;;;;;;21.13;8.13;;;;;;;-4.89;67.90;99767.09;4972130;28;20046;-65
2021/12/08 12:13:13;;;;;;;12.40;5.97;;;;;;;-4.97;68.17;99758.47;4973521;28;20039;-61
2021/12/08 12:15:47;;;;;;;17.08;6.95;;;;;;;-4.91;67.78;99758.38;4970025;28;20046;-60
2021/12/08 12:18:17;;;;;;;17.00;6.70;;;;;;;-4.95;68.28;99757.16;4970392;28;20129;-63
2021/12/08 12:20:48;;;;;;;19.15;7.35;;;;;;;-4.97;68.01;99766.59;4971501;28;20055;-60
2021/12/08 12:23:33;;;;;;;20.52;6.82;;;;;;;-4.96;68.26;99770.97;4970449;28;20463;-60
2021/12/08 12:26:15;;;;;;;20.17;7.30;;;;;;;-4.90;67.89;99770.03;4967164;28;20074;-65
2021/12/08 12:29:09;;;;;;;18.15;7.75;;;;;;;-4.78;67.23;99784.50;4968878;28;20137;-65
2021/12/08 12:31:45;;;;;;;13.38;5.88;;;;;;;-4.76;67.39;99787.81;4971574;28;20042;-66
2021/12/08 12:34:29;;;;;;;18.25;6.70;;;;;;;-4.86;68.01;99792.97;4966122;28;20105;-65
2021/12/08 12:36:56;;;;;;;16.50;7.35;;;;;;;-4.87;68.04;99788.59;4967862;28;20815;-63
2021/12/08 12:39:26;;;;;;;20.55;8.32;;;;;;;-4.90;67.73;99791.75;4973302;28;20054;-62
2021/12/08 12:41:58;;;;;;;17.25;6.72;;;;;;;-5.02;68.07;99788.13;4968941;28;20038;-65